sensor_id;sensor_type;location;lat;lon;timestamp;pressure;altitude;pressure_sealevel;temperature;humidity
35507;BME280;36461;52.018;21.036;2022-09-12T00:00:43;99823.20;;;11.92;75.07
35507;BME280;36461;52.018;21.036;2022-09-12T00:03:12;99816.93;;;11.87;75.13
35507;BME280;36461;52.018;21.036;2022-09-12T00:05:43;99817.69;;;11.89;75.40
35507;BME280;36461;52.018;21.036;2022-09-12T00:08:13;99823.44;;;11.87;75.48
35507;BME280;36461;52.018;21.036;2022-09-12T00:10:41;99823.11;;;11.85;75.53
35507;BME280;36461;52.018;21.036;2022-09-12T00:13:10;99827.92;;;11.84;75.68
35507;BME280;36461;52.018;21.036;2022-09-12T00:15:41;99819.29;;;11.83;75.75
35507;BME280;36461;52.018;21.036;2022-09-12T00:18:14;99817.01;;;11.86;75.95
35507;BME280;36461;52.018;21.036;2022-09-12T00:20:45;99820.52;;;11.85;75.99
35507;BME280;36461;52.018;21.036;2022-09-12T00:23:13;99825.47;;;11.81;75.99
35507;BME280;36461;52.018;21.036;2022-09-12T00:25:44;99819.64;;;11.75;76.07
35507;BME280;36461;52.018;21.036;2022-09-12T00:28:12;99824.01;;;11.75;76.31
35507;BME280;36461;52.018;21.036;2022-09-12T00:30:45;99823.94;;;11.77;76.45
35507;BME280;36461;52.018;21.036;2022-09-12T00:33:15;99822.70;;;11.75;76.46
35507;BME280;36461;52.018;21.036;2022-09-12T00:35:48;99822.44;;;11.71;76.39
35507;BME280;36461;52.018;21.036;2022-09-12T00:38:18;99819.59;;;11.67;76.56
35507;BME280;36461;52.018;21.036;2022-09-12T00:40:46;99817.45;;;11.66;76.74
35507;BME280;36461;52.018;21.036;2022-09-12T00:43:34;99817.22;;;11.62;76.70
35507;BME280;36461;52.018;21.036;2022-09-12T00:46:30;99811.23;;;11.60;76.97
35507;BME280;36461;52.018;21.036;2022-09-12T00:51:36;99819.10;;;11.58;77.21
35507;BME280;36461;52.018;21.036;2022-09-12T00:54:07;99819.64;;;11.56;77.29
35507;BME280;36461;52.018;21.036;2022-09-12T00:56:36;99821.45;;;11.54;77.35
35507;BME280;36461;52.018;21.036;2022-09-12T00:59:10;99827.52;;;11.55;77.47
35507;BME280;36461;52.018;21.036;2022-09-12T01:01:41;99829.25;;;11.54;77.67
35507;BME280;36461;52.018;21.036;2022-09-12T01:04:09;99831.45;;;11.53;77.67
35507;BME280;36461;52.018;21.036;2022-09-12T01:06:40;99835.90;;;11.51;77.66
35507;BME280;36461;52.018;21.036;2022-09-12T01:09:17;99826.16;;;11.46;77.75
35507;BME280;36461;52.018;21.036;2022-09-12T01:11:46;99823.70;;;11.43;77.92
35507;BME280;36461;52.018;21.036;2022-09-12T01:14:15;99826.31;;;11.43;77.95
35507;BME280;36461;52.018;21.036;2022-09-12T01:16:43;99835.80;;;11.44;78.16
35507;BME280;36461;52.018;21.036;2022-09-12T01:22:09;99838.27;;;11.37;78.29
35507;BME280;36461;52.018;21.036;2022-09-12T01:24:54;99833.46;;;11.38;78.44
35507;BME280;36461;52.018;21.036;2022-09-12T01:30:40;99838.84;;;11.33;78.67
35507;BME280;36461;52.018;21.036;2022-09-12T01:39:46;99844.26;;;11.29;79.07
35507;BME280;36461;52.018;21.036;2022-09-12T01:50:04;99858.77;;;11.24;79.55
35507;BME280;36461;52.018;21.036;2022-09-12T01:52:49;99848.41;;;11.22;79.53
35507;BME280;36461;52.018;21.036;2022-09-12T01:58:07;99852.63;;;11.25;79.50
35507;BME280;36461;52.018;21.036;2022-09-12T02:00:45;99852.27;;;11.24;79.53
35507;BME280;36461;52.018;21.036;2022-09-12T02:03:19;99855.23;;;11.25;79.62
35507;BME280;36461;52.018;21.036;2022-09-12T02:06:00;99852.27;;;11.24;79.63
35507;BME280;36461;52.018;21.036;2022-09-12T02:08:38;99854.00;;;11.23;79.67
35507;BME280;36461;52.018;21.036;2022-09-12T02:11:10;99854.91;;;11.22;79.87
35507;BME280;36461;52.018;21.036;2022-09-12T02:16:28;99853.68;;;11.21;79.90
35507;BME280;36461;52.018;21.036;2022-09-12T02:19:06;99846.42;;;11.19;79.96
35507;BME280;36461;52.018;21.036;2022-09-12T02:21:34;99853.75;;;11.19;80.17
35507;BME280;36461;52.018;21.036;2022-09-12T02:24:04;99855.19;;;11.16;80.05
35507;BME280;36461;52.018;21.036;2022-09-12T02:26:35;99859.52;;;11.16;80.25
35507;BME280;36461;52.018;21.036;2022-09-12T02:29:05;99857.39;;;11.15;80.31
35507;BME280;36461;52.018;21.036;2022-09-12T02:31:45;99859.48;;;11.17;80.45
35507;BME280;36461;52.018;21.036;2022-09-12T02:37:11;99860.06;;;11.14;80.65
35507;BME280;36461;52.018;21.036;2022-09-12T02:39:38;99856.34;;;11.19;80.72
35507;BME280;36461;52.018;21.036;2022-09-12T02:42:05;99853.89;;;11.16;80.51
35507;BME280;36461;52.018;21.036;2022-09-12T02:44:33;99863.05;;;11.15;80.64
35507;BME280;36461;52.018;21.036;2022-09-12T02:47:19;99858.84;;;11.12;80.65
35507;BME280;36461;52.018;21.036;2022-09-12T02:49:52;99856.34;;;11.09;80.55
35507;BME280;36461;52.018;21.036;2022-09-12T02:52:19;99864.67;;;11.07;80.62
35507;BME280;36461;52.018;21.036;2022-09-12T02:54:47;99861.42;;;11.02;80.62
35507;BME280;36461;52.018;21.036;2022-09-12T02:57:18;99861.96;;;11.00;80.78
35507;BME280;36461;52.018;21.036;2022-09-12T02:59:48;99861.96;;;11.00;80.90
35507;BME280;36461;52.018;21.036;2022-09-12T03:02:26;99860.59;;;11.01;81.01
35507;BME280;36461;52.018;21.036;2022-09-12T03:11:07;99869.22;;;11.02;81.18
35507;BME280;36461;52.018;21.036;2022-09-12T03:19:15;99875.05;;;10.97;81.33
35507;BME280;36461;52.018;21.036;2022-09-12T03:22:27;99881.80;;;11.01;81.55
35507;BME280;36461;52.018;21.036;2022-09-12T03:28:07;99884.73;;;11.03;81.60
35507;BME280;36461;52.018;21.036;2022-09-12T03:30:46;99897.58;;;11.06;81.67
35507;BME280;36461;52.018;21.036;2022-09-12T03:33:17;99899.73;;;11.07;81.64
35507;BME280;36461;52.018;21.036;2022-09-12T03:35:45;99897.91;;;11.09;81.76
35507;BME280;36461;52.018;21.036;2022-09-12T03:38:13;99904.30;;;11.12;81.79
35507;BME280;36461;52.018;21.036;2022-09-12T03:40:40;99895.96;;;11.14;81.76
35507;BME280;36461;52.018;21.036;2022-09-12T03:43:08;99906.25;;;11.17;81.73
35507;BME280;36461;52.018;21.036;2022-09-12T03:45:36;99917.94;;;11.17;81.60
35507;BME280;36461;52.018;21.036;2022-09-12T03:48:04;99910.07;;;11.19;81.71
35507;BME280;36461;52.018;21.036;2022-09-12T03:50:32;99915.59;;;11.21;81.61
35507;BME280;36461;52.018;21.036;2022-09-12T03:52:59;99914.63;;;11.24;81.67
35507;BME280;36461;52.018;21.036;2022-09-12T03:55:26;99913.19;;;11.27;81.70
35507;BME280;36461;52.018;21.036;2022-09-12T03:57:53;99916.61;;;11.28;81.43
35507;BME280;36461;52.018;21.036;2022-09-12T04:00:21;99912.32;;;11.27;81.47
35507;BME280;36461;52.018;21.036;2022-09-12T04:02:53;99924.08;;;11.25;81.40
35507;BME280;36461;52.018;21.036;2022-09-12T04:05:21;99919.35;;;11.24;81.54
35507;BME280;36461;52.018;21.036;2022-09-12T04:07:49;99917.52;;;11.27;81.67
35507;BME280;36461;52.018;21.036;2022-09-12T04:10:16;99919.28;;;11.26;81.59
35507;BME280;36461;52.018;21.036;2022-09-12T04:12:44;99928.77;;;11.27;81.68
35507;BME280;36461;52.018;21.036;2022-09-12T04:15:11;99925.78;;;11.26;81.75
35507;BME280;36461;52.018;21.036;2022-09-12T04:17:37;99922.78;;;11.25;81.77
35507;BME280;36461;52.018;21.036;2022-09-12T04:20:05;99929.75;;;11.24;82.00
35507;BME280;36461;52.018;21.036;2022-09-12T04:22:33;99935.45;;;11.22;82.06
35507;BME280;36461;52.018;21.036;2022-09-12T04:24:59;99941.94;;;11.22;82.19
35507;BME280;36461;52.018;21.036;2022-09-12T04:27:26;99941.61;;;11.20;82.16
35507;BME280;36461;52.018;21.036;2022-09-12T04:29:53;99946.95;;;11.17;82.21
35507;BME280;36461;52.018;21.036;2022-09-12T04:32:21;99947.85;;;11.16;82.31
35507;BME280;36461;52.018;21.036;2022-09-12T04:34:50;99943.95;;;11.16;82.42
35507;BME280;36461;52.018;21.036;2022-09-12T04:37:17;99945.39;;;11.13;82.51
35507;BME280;36461;52.018;21.036;2022-09-12T04:39:44;99947.59;;;11.12;82.48
35507;BME280;36461;52.018;21.036;2022-09-12T04:42:10;99951.48;;;11.12;82.75
35507;BME280;36461;52.018;21.036;2022-09-12T04:44:38;99954.02;;;11.13;82.80
35507;BME280;36461;52.018;21.036;2022-09-12T04:47:04;99957.88;;;11.15;82.72
35507;BME280;36461;52.018;21.036;2022-09-12T04:49:32;99957.48;;;11.14;82.81
35507;BME280;36461;52.018;21.036;2022-09-12T04:51:58;99959.41;;;11.08;82.79
35507;BME280;36461;52.018;21.036;2022-09-12T04:54:25;99957.02;;;11.04;82.93
35507;BME280;36461;52.018;21.036;2022-09-12T04:56:51;99956.69;;;11.01;83.38
35507;BME280;36461;52.018;21.036;2022-09-12T04:59:20;99953.63;;;11.02;83.45
35507;BME280;36461;52.018;21.036;2022-09-12T05:01:47;99948.03;;;11.01;83.48
35507;BME280;36461;52.018;21.036;2022-09-12T05:04:14;99953.16;;;11.02;83.61
35507;BME280;36461;52.018;21.036;2022-09-12T05:06:41;99955.33;;;11.03;83.62
35507;BME280;36461;52.018;21.036;2022-09-12T05:09:13;99951.42;;;11.03;83.70
35507;BME280;36461;52.018;21.036;2022-09-12T05:11:42;99954.69;;;11.08;83.79
35507;BME280;36461;52.018;21.036;2022-09-12T05:14:10;99958.05;;;11.10;83.83
35507;BME280;36461;52.018;21.036;2022-09-12T05:16:38;99955.92;;;11.10;83.77
35507;BME280;36461;52.018;21.036;2022-09-12T05:19:06;99960.01;;;11.15;84.06
35507;BME280;36461;52.018;21.036;2022-09-12T05:21:34;99963.58;;;11.13;83.67
35507;BME280;36461;52.018;21.036;2022-09-12T05:24:01;99966.17;;;11.13;83.87
35507;BME280;36461;52.018;21.036;2022-09-12T05:26:30;99970.07;;;11.13;83.92
35507;BME280;36461;52.018;21.036;2022-09-12T05:28:57;99977.63;;;11.19;84.09
35507;BME280;36461;52.018;21.036;2022-09-12T05:31:26;99974.81;;;11.23;84.04
35507;BME280;36461;52.018;21.036;2022-09-12T05:33:55;99976.76;;;11.18;84.07
35507;BME280;36461;52.018;21.036;2022-09-12T05:36:25;99979.99;;;11.13;84.22
35507;BME280;36461;52.018;21.036;2022-09-12T05:38:58;99978.33;;;11.12;84.45
35507;BME280;36461;52.018;21.036;2022-09-12T05:41:28;99977.69;;;11.17;84.70
35507;BME280;36461;52.018;21.036;2022-09-12T05:44:01;99984.95;;;11.19;84.41
35507;BME280;36461;52.018;21.036;2022-09-12T05:46:34;99984.11;;;11.19;84.42
35507;BME280;36461;52.018;21.036;2022-09-12T05:49:05;99988.34;;;11.21;84.53
35507;BME280;36461;52.018;21.036;2022-09-12T05:51:39;99985.09;;;11.16;84.63
35507;BME280;36461;52.018;21.036;2022-09-12T05:54:10;99983.25;;;11.18;85.14
35507;BME280;36461;52.018;21.036;2022-09-12T05:56:40;99989.62;;;11.11;85.42
35507;BME280;36461;52.018;21.036;2022-09-12T05:59:19;99982.00;;;11.06;85.71
35507;BME280;36461;52.018;21.036;2022-09-12T06:01:49;99987.39;;;11.02;85.61
35507;BME280;36461;52.018;21.036;2022-09-12T06:04:16;99987.39;;;11.02;86.03
35507;BME280;36461;52.018;21.036;2022-09-12T06:06:44;99978.56;;;11.06;86.23
35507;BME280;36461;52.018;21.036;2022-09-12T06:09:13;99981.56;;;11.07;86.86
35507;BME280;36461;52.018;21.036;2022-09-12T06:11:41;99986.63;;;11.10;87.01
35507;BME280;36461;52.018;21.036;2022-09-12T06:14:10;99977.03;;;11.12;87.02
35507;BME280;36461;52.018;21.036;2022-09-12T06:16:38;99983.58;;;11.21;87.11
35507;BME280;36461;52.018;21.036;2022-09-12T06:19:06;99989.50;;;11.24;87.01
35507;BME280;36461;52.018;21.036;2022-09-12T06:21:35;99979.63;;;11.33;87.06
35507;BME280;36461;52.018;21.036;2022-09-12T06:24:03;99978.41;;;11.31;86.47
35507;BME280;36461;52.018;21.036;2022-09-12T06:26:30;99979.50;;;11.36;86.83
35507;BME280;36461;52.018;21.036;2022-09-12T06:28:58;99973.48;;;11.46;87.11
35507;BME280;36461;52.018;21.036;2022-09-12T06:31:28;99978.98;;;11.58;86.82
35507;BME280;36461;52.018;21.036;2022-09-12T06:33:59;99971.76;;;11.65;86.33
35507;BME280;36461;52.018;21.036;2022-09-12T06:36:30;99985.66;;;11.64;86.56
35507;BME280;36461;52.018;21.036;2022-09-12T06:39:01;99987.94;;;11.72;86.54
35507;BME280;36461;52.018;21.036;2022-09-12T06:41:33;99981.04;;;11.81;86.12
35507;BME280;36461;52.018;21.036;2022-09-12T06:44:01;99986.96;;;11.85;86.34
35507;BME280;36461;52.018;21.036;2022-09-12T06:46:28;99987.97;;;11.91;85.94
35507;BME280;36461;52.018;21.036;2022-09-12T06:48:56;99990.13;;;11.91;86.03
35507;BME280;36461;52.018;21.036;2022-09-12T06:51:26;99989.94;;;12.06;86.16
35507;BME280;36461;52.018;21.036;2022-09-12T06:53:55;99992.96;;;12.16;85.69
35507;BME280;36461;52.018;21.036;2022-09-12T06:56:25;99991.22;;;12.17;85.13
35507;BME280;36461;52.018;21.036;2022-09-12T06:58:57;99992.89;;;12.18;85.31
35507;BME280;36461;52.018;21.036;2022-09-12T07:01:29;99997.58;;;12.20;85.17
35507;BME280;36461;52.018;21.036;2022-09-12T07:03:58;99992.56;;;12.15;85.38
35507;BME280;36461;52.018;21.036;2022-09-12T07:06:39;100005.90;;;12.18;85.15
35507;BME280;36461;52.018;21.036;2022-09-12T07:09:04;100001.41;;;12.21;85.44
35507;BME280;36461;52.018;21.036;2022-09-12T07:11:34;100002.05;;;12.27;85.33
35507;BME280;36461;52.018;21.036;2022-09-12T07:14:04;100007.42;;;12.32;85.36
35507;BME280;36461;52.018;21.036;2022-09-12T07:16:36;100009.37;;;12.37;85.21
35507;BME280;36461;52.018;21.036;2022-09-12T07:19:05;100009.20;;;12.32;85.06
35507;BME280;36461;52.018;21.036;2022-09-12T07:21:33;100013.22;;;12.29;85.15
35507;BME280;36461;52.018;21.036;2022-09-12T07:24:04;100029.78;;;12.17;85.32
35507;BME280;36461;52.018;21.036;2022-09-12T07:26:31;100029.78;;;12.17;85.32
35507;BME280;36461;52.018;21.036;2022-09-12T07:28:58;100022.94;;;12.25;85.63
35507;BME280;36461;52.018;21.036;2022-09-12T07:31:26;100026.72;;;12.18;85.11
35507;BME280;36461;52.018;21.036;2022-09-12T07:33:54;100024.08;;;12.09;84.95
35507;BME280;36461;52.018;21.036;2022-09-12T07:36:23;100041.06;;;12.07;85.28
35507;BME280;36461;52.018;21.036;2022-09-12T07:38:55;100037.59;;;12.17;85.84
35507;BME280;36461;52.018;21.036;2022-09-12T07:41:26;100039.78;;;12.27;85.54
35507;BME280;36461;52.018;21.036;2022-09-12T07:43:56;100040.62;;;12.27;85.10
35507;BME280;36461;52.018;21.036;2022-09-12T07:46:26;100043.95;;;12.20;85.10
35507;BME280;36461;52.018;21.036;2022-09-12T07:48:57;100043.27;;;12.17;85.69
35507;BME280;36461;52.018;21.036;2022-09-12T07:51:26;100055.02;;;12.15;85.51
35507;BME280;36461;52.018;21.036;2022-09-12T07:53:54;100055.66;;;12.20;85.66
35507;BME280;36461;52.018;21.036;2022-09-12T07:56:22;100056.31;;;12.25;86.11
35507;BME280;36461;52.018;21.036;2022-09-12T07:58:50;100058.59;;;12.23;85.85
35507;BME280;36461;52.018;21.036;2022-09-12T08:01:19;100058.59;;;12.23;85.85
35507;BME280;36461;52.018;21.036;2022-09-12T08:03:57;100057.28;;;12.23;85.36
35507;BME280;36461;52.018;21.036;2022-09-12T08:06:27;100059.97;;;12.11;85.65
35507;BME280;36461;52.018;21.036;2022-09-12T08:08:57;100067.27;;;12.13;86.30
35507;BME280;36461;52.018;21.036;2022-09-12T08:11:28;100064.59;;;12.15;86.60
35507;BME280;36461;52.018;21.036;2022-09-12T08:13:56;100060.36;;;12.22;86.56
35507;BME280;36461;52.018;21.036;2022-09-12T08:16:26;100067.22;;;12.34;86.71
35507;BME280;36461;52.018;21.036;2022-09-12T08:18:56;100066.73;;;12.45;86.60
35507;BME280;36461;52.018;21.036;2022-09-12T08:21:25;100066.78;;;12.53;86.48
35507;BME280;36461;52.018;21.036;2022-09-12T08:23:56;100067.94;;;12.56;85.97
35507;BME280;36461;52.018;21.036;2022-09-12T08:26:26;100069.48;;;12.61;86.12
35507;BME280;36461;52.018;21.036;2022-09-12T08:28:53;100066.38;;;12.63;85.94
35507;BME280;36461;52.018;21.036;2022-09-12T08:31:22;100071.91;;;12.74;86.11
35507;BME280;36461;52.018;21.036;2022-09-12T08:33:54;100069.80;;;12.82;85.85
35507;BME280;36461;52.018;21.036;2022-09-12T08:36:24;100069.80;;;12.82;85.85
35507;BME280;36461;52.018;21.036;2022-09-12T08:38:57;100068.45;;;12.92;85.42
35507;BME280;36461;52.018;21.036;2022-09-12T08:41:39;100066.72;;;13.02;84.99
35507;BME280;36461;52.018;21.036;2022-09-12T08:47:38;100071.95;;;13.38;85.04
35507;BME280;36461;52.018;21.036;2022-09-12T08:50:09;100071.95;;;13.38;85.04
35507;BME280;36461;52.018;21.036;2022-09-12T08:57:52;100069.22;;;13.59;83.77
35507;BME280;36461;52.018;21.036;2022-09-12T09:00:20;100078.55;;;13.89;83.53
35507;BME280;36461;52.018;21.036;2022-09-12T09:06:11;100073.22;;;14.08;82.44
35507;BME280;36461;52.018;21.036;2022-09-12T09:11:52;100072.65;;;14.28;82.33
35507;BME280;36461;52.018;21.036;2022-09-12T09:17:26;100068.52;;;14.15;81.76
35507;BME280;36461;52.018;21.036;2022-09-12T09:23:19;100067.94;;;14.01;81.15
35507;BME280;36461;52.018;21.036;2022-09-12T09:26:12;100071.91;;;14.08;81.43
35507;BME280;36461;52.018;21.036;2022-09-12T09:28:47;100071.08;;;14.08;81.12
35507;BME280;36461;52.018;21.036;2022-09-12T09:31:21;100073.25;;;14.00;80.98
35507;BME280;36461;52.018;21.036;2022-09-12T09:33:51;100080.69;;;13.99;81.07
35507;BME280;36461;52.018;21.036;2022-09-12T09:39:39;100082.44;;;14.07;80.82
35507;BME280;36461;52.018;21.036;2022-09-12T09:44:52;100087.48;;;14.19;80.85
35507;BME280;36461;52.018;21.036;2022-09-12T09:47:21;100085.88;;;14.16;80.36
35507;BME280;36461;52.018;21.036;2022-09-12T09:49:48;100084.19;;;14.15;80.48
35507;BME280;36461;52.018;21.036;2022-09-12T09:52:23;100086.88;;;14.22;80.50
35507;BME280;36461;52.018;21.036;2022-09-12T09:54:55;100085.31;;;14.27;80.19
35507;BME280;36461;52.018;21.036;2022-09-12T10:00:21;100099.23;;;14.28;79.46
35507;BME280;36461;52.018;21.036;2022-09-12T10:05:47;100101.93;;;14.17;79.74
35507;BME280;36461;52.018;21.036;2022-09-12T10:08:26;100102.06;;;14.32;80.13
35507;BME280;36461;52.018;21.036;2022-09-12T10:11:06;100113.03;;;14.30;78.86
35507;BME280;36461;52.018;21.036;2022-09-12T10:13:53;100107.89;;;14.37;79.05
35507;BME280;36461;52.018;21.036;2022-09-12T10:16:28;100118.42;;;14.60;79.48
35507;BME280;36461;52.018;21.036;2022-09-12T10:18:58;100113.38;;;14.82;78.98
35507;BME280;36461;52.018;21.036;2022-09-12T10:21:35;100114.30;;;14.97;79.01
35507;BME280;36461;52.018;21.036;2022-09-12T10:26:46;100118.90;;;14.84;77.70
35507;BME280;36461;52.018;21.036;2022-09-12T10:29:18;100120.03;;;14.87;77.54
35507;BME280;36461;52.018;21.036;2022-09-12T10:31:53;100114.84;;;14.94;77.75
35507;BME280;36461;52.018;21.036;2022-09-12T10:34:28;100120.25;;;15.07;77.62
35507;BME280;36461;52.018;21.036;2022-09-12T10:37:03;100125.56;;;15.22;77.54
35507;BME280;36461;52.018;21.036;2022-09-12T10:39:33;100124.39;;;15.35;76.72
35507;BME280;36461;52.018;21.036;2022-09-12T10:42:02;100128.52;;;15.39;76.76
35507;BME280;36461;52.018;21.036;2022-09-12T10:44:31;100132.13;;;15.29;75.81
35507;BME280;36461;52.018;21.036;2022-09-12T10:47:21;100128.70;;;15.20;75.92
35507;BME280;36461;52.018;21.036;2022-09-12T10:49:49;100128.62;;;15.21;76.31
35507;BME280;36461;52.018;21.036;2022-09-12T10:52:22;100125.80;;;15.17;75.58
35507;BME280;36461;52.018;21.036;2022-09-12T10:54:50;100129.30;;;15.09;75.80
35507;BME280;36461;52.018;21.036;2022-09-12T11:00:15;100142.33;;;14.86;75.19
35507;BME280;36461;52.018;21.036;2022-09-12T11:05:57;100140.59;;;14.78;75.67
35507;BME280;36461;52.018;21.036;2022-09-12T11:08:30;100141.60;;;14.75;75.63
35507;BME280;36461;52.018;21.036;2022-09-12T11:17:21;100142.25;;;14.87;75.70
35507;BME280;36461;52.018;21.036;2022-09-12T11:20:08;100146.50;;;14.97;75.68
35507;BME280;36461;52.018;21.036;2022-09-12T11:23:02;100144.39;;;15.04;75.49
35507;BME280;36461;52.018;21.036;2022-09-12T11:26:01;100145.05;;;15.16;75.64
35507;BME280;36461;52.018;21.036;2022-09-12T11:34:28;100145.70;;;15.59;75.41
35507;BME280;36461;52.018;21.036;2022-09-12T11:39:58;100144.84;;;15.51;74.17
35507;BME280;36461;52.018;21.036;2022-09-12T11:42:33;100143.69;;;15.48;74.21
35507;BME280;36461;52.018;21.036;2022-09-12T11:45:22;100141.45;;;15.49;74.38
35507;BME280;36461;52.018;21.036;2022-09-12T11:47:57;100148.05;;;15.56;74.39
35507;BME280;36461;52.018;21.036;2022-09-12T11:50:29;100144.73;;;15.76;74.03
35507;BME280;36461;52.018;21.036;2022-09-12T11:53:02;100147.92;;;15.74;73.62
35507;BME280;36461;52.018;21.036;2022-09-12T11:55:33;100145.16;;;15.84;73.84
35507;BME280;36461;52.018;21.036;2022-09-12T11:58:02;100147.83;;;15.99;73.59
35507;BME280;36461;52.018;21.036;2022-09-12T12:00:36;100147.55;;;16.03;73.14
35507;BME280;36461;52.018;21.036;2022-09-12T12:06:04;100144.63;;;15.86;72.67
35507;BME280;36461;52.018;21.036;2022-09-12T12:08:43;100149.03;;;15.70;72.92
35507;BME280;36461;52.018;21.036;2022-09-12T12:11:14;100151.80;;;15.67;72.94
35507;BME280;36461;52.018;21.036;2022-09-12T12:13:53;100142.35;;;15.64;73.24
35507;BME280;36461;52.018;21.036;2022-09-12T12:19:08;100145.45;;;15.64;73.61
35507;BME280;36461;52.018;21.036;2022-09-12T12:21:49;100146.47;;;15.61;73.41
35507;BME280;36461;52.018;21.036;2022-09-12T12:29:36;100150.21;;;15.41;73.91
35507;BME280;36461;52.018;21.036;2022-09-12T12:34:40;100154.11;;;15.34;74.06
35507;BME280;36461;52.018;21.036;2022-09-12T12:39:59;100157.23;;;15.24;74.53
35507;BME280;36461;52.018;21.036;2022-09-12T12:47:58;100152.30;;;15.27;74.16
35507;BME280;36461;52.018;21.036;2022-09-12T12:50:29;100154.44;;;15.27;74.13
35507;BME280;36461;52.018;21.036;2022-09-12T12:53:04;100159.99;;;15.37;73.99
35507;BME280;36461;52.018;21.036;2022-09-12T12:55:52;100155.64;;;15.45;74.28
35507;BME280;36461;52.018;21.036;2022-09-12T13:03:42;100150.67;;;16.17;73.39
35507;BME280;36461;52.018;21.036;2022-09-12T13:06:31;100154.12;;;16.18;72.37
35507;BME280;36461;52.018;21.036;2022-09-12T13:12:10;100157.76;;;16.01;72.43
35507;BME280;36461;52.018;21.036;2022-09-12T13:14:56;100155.20;;;15.99;72.22
35507;BME280;36461;52.018;21.036;2022-09-12T13:17:40;100159.80;;;16.03;72.45
35507;BME280;36461;52.018;21.036;2022-09-12T13:20:21;100162.57;;;15.92;71.89
35507;BME280;36461;52.018;21.036;2022-09-12T13:22:50;100157.61;;;15.81;72.03
35507;BME280;36461;52.018;21.036;2022-09-12T13:25:26;100156.61;;;15.74;72.20
35507;BME280;36461;52.018;21.036;2022-09-12T13:30:39;100161.13;;;15.56;72.42
35507;BME280;36461;52.018;21.036;2022-09-12T13:33:38;100156.44;;;15.54;72.90
35507;BME280;36461;52.018;21.036;2022-09-12T13:44:44;100160.16;;;15.50;73.09
35507;BME280;36461;52.018;21.036;2022-09-12T13:47:17;100160.55;;;15.51;73.26
35507;BME280;36461;52.018;21.036;2022-09-12T13:49:57;100160.55;;;15.51;73.13
35507;BME280;36461;52.018;21.036;2022-09-12T13:52:31;100167.23;;;15.48;72.79
35507;BME280;36461;52.018;21.036;2022-09-12T13:54:59;100161.44;;;15.43;72.64
35507;BME280;36461;52.018;21.036;2022-09-12T13:57:32;100172.31;;;15.51;72.75
35507;BME280;36461;52.018;21.036;2022-09-12T14:02:42;100165.38;;;15.73;73.22
35507;BME280;36461;52.018;21.036;2022-09-12T14:05:12;100161.73;;;15.85;72.54
35507;BME280;36461;52.018;21.036;2022-09-12T14:08:19;100164.16;;;15.88;72.58
35507;BME280;36461;52.018;21.036;2022-09-12T14:10:37;100169.50;;;15.93;72.00
35507;BME280;36461;52.018;21.036;2022-09-12T14:13:22;100165.23;;;16.07;72.36
35507;BME280;36461;52.018;21.036;2022-09-12T14:15:52;100171.23;;;16.23;72.42
35507;BME280;36461;52.018;21.036;2022-09-12T14:18:26;100172.39;;;16.34;72.07
35507;BME280;36461;52.018;21.036;2022-09-12T14:21:09;100169.98;;;16.45;71.73
35507;BME280;36461;52.018;21.036;2022-09-12T14:23:57;100163.06;;;16.58;71.57
35507;BME280;36461;52.018;21.036;2022-09-12T14:26:27;100169.80;;;16.63;70.69
35507;BME280;36461;52.018;21.036;2022-09-12T14:28:57;100164.62;;;16.61;70.62
35507;BME280;36461;52.018;21.036;2022-09-12T14:31:34;100166.42;;;16.60;70.37
35507;BME280;36461;52.018;21.036;2022-09-12T14:34:13;100166.98;;;16.66;70.44
35507;BME280;36461;52.018;21.036;2022-09-12T14:36:46;100164.08;;;16.77;70.58
35507;BME280;36461;52.018;21.036;2022-09-12T14:39:21;100165.48;;;16.90;70.30
35507;BME280;36461;52.018;21.036;2022-09-12T14:41:51;100163.63;;;16.92;69.47
35507;BME280;36461;52.018;21.036;2022-09-12T14:44:39;100168.39;;;16.93;69.39
35507;BME280;36461;52.018;21.036;2022-09-12T14:47:18;100166.23;;;17.00;69.44
35507;BME280;36461;52.018;21.036;2022-09-12T14:49:49;100168.68;;;17.03;68.54
35507;BME280;36461;52.018;21.036;2022-09-12T14:55:22;100165.22;;;16.95;68.53
35507;BME280;36461;52.018;21.036;2022-09-12T14:58:05;100171.77;;;16.95;68.75
35507;BME280;36461;52.018;21.036;2022-09-12T15:03:28;100172.33;;;16.78;68.65
35507;BME280;36461;52.018;21.036;2022-09-12T15:06:25;100178.66;;;16.74;68.29
35507;BME280;36461;52.018;21.036;2022-09-12T15:08:58;100173.80;;;16.61;68.16
35507;BME280;36461;52.018;21.036;2022-09-12T15:11:28;100174.84;;;16.51;68.24
35507;BME280;36461;52.018;21.036;2022-09-12T15:13:55;100181.39;;;16.44;68.46
35507;BME280;36461;52.018;21.036;2022-09-12T15:16:22;100177.72;;;16.32;68.20
35507;BME280;36461;52.018;21.036;2022-09-12T15:18:48;100181.72;;;16.23;68.45
35507;BME280;36461;52.018;21.036;2022-09-12T15:21:18;100175.84;;;16.20;68.84
35507;BME280;36461;52.018;21.036;2022-09-12T15:23:49;100178.55;;;16.18;68.84
35507;BME280;36461;52.018;21.036;2022-09-12T15:26:20;100180.69;;;16.19;68.99
35507;BME280;36461;52.018;21.036;2022-09-12T15:28:50;100176.28;;;16.19;69.00
35507;BME280;36461;52.018;21.036;2022-09-12T15:31:30;100183.50;;;16.16;68.86
35507;BME280;36461;52.018;21.036;2022-09-12T15:33:56;100183.50;;;16.16;69.21
35507;BME280;36461;52.018;21.036;2022-09-12T15:36:25;100179.83;;;16.11;69.06
35507;BME280;36461;52.018;21.036;2022-09-12T15:38:54;100189.18;;;16.08;69.38
35507;BME280;36461;52.018;21.036;2022-09-12T15:41:25;100192.19;;;16.09;69.54
35507;BME280;36461;52.018;21.036;2022-09-12T15:43:57;100194.89;;;16.07;69.83